CheckWX is a tool to help pilots better visualize weather data.  It is not intended as a substitute for an official pre-flight weather briefing.

23:35:32 UTC

KMCO TAF
Orlando International Airport
Orlando, Florida, USA
KMCO 182040Z 1821/1924 08006KT P6SM VCSH FEW060 SCT100 OVC200 FM182200 09011KT P6SM VCSH SCT025 BKN040 OVC080 TEMPO 1901/1905 10012G19KT 3SM SHRA BR BKN015 BKN040 FM190500 12012KT P6SM -SHRA BKN020 BKN050 FM191200 17013G19KT P6SM SHRA BKN020 OVC070 FM191800 18016G22KT P6SM BKN020 BKN070

Oct-18@
21:00 UTC

Oct-18 @ 21:00 UTC

Oct-18@
22:00 UTC

Oct-18 @ 22:00 UTC

KMCO 182040Z 1821/1924 08006KT P6SM VCSH FEW060 SCT100 OVC200

Expired

Wind
  • 080° at 6 KTS
Cloud Levels
  • Few at 6,000' AGL
  • Scattered at 10,000' AGL
  • Overcast at 20,000' AGL

Oct-18@
22:00 UTC

Oct-18 @ 22:00 UTC

Oct-19@
05:00 UTC

Oct-19 @ 05:00 UTC

FM182200 09011KT P6SM VCSH SCT025 BKN040 OVC080

From

From Standard forecast or significant change

Wind
  • 090° at 11 KTS
Cloud Levels
  • Scattered at 2,500' AGL
  • Broken at 4,000' AGL
  • Overcast at 8,000' AGL

Oct-19@
01:00 UTC

Oct-19 @ 01:00 UTC

Oct-19@
05:00 UTC

Oct-19 @ 05:00 UTC

TEMPO 1901/1905 10012G19KT 3SM SHRA BR BKN015 BKN040

Temporary

Temporary Changes expected for less than half the time period

Wind
  • 100° at 12 KTS
  • {Gusting to 19 KTS
Conditions
Rain, Mist
Cloud Levels
  • Broken at 1,500' AGL
  • Broken at 4,000' AGL

Oct-19@
05:00 UTC

Oct-19 @ 05:00 UTC

Oct-19@
12:00 UTC

Oct-19 @ 12:00 UTC

FM190500 12012KT P6SM -SHRA BKN020 BKN050

From

From Standard forecast or significant change

Wind
  • 120° at 12 KTS
Conditions
Light Rain
Cloud Levels
  • Broken at 2,000' AGL
  • Broken at 5,000' AGL

Oct-19@
12:00 UTC

Oct-19 @ 12:00 UTC

Oct-19@
18:00 UTC

Oct-19 @ 18:00 UTC

FM191200 17013G19KT P6SM SHRA BKN020 OVC070

From

From Standard forecast or significant change

Wind
  • 170° at 13 KTS
  • {Gusting to 19 KTS
Conditions
Rain
Cloud Levels
  • Broken at 2,000' AGL
  • Overcast at 7,000' AGL

Oct-19@
18:00 UTC

Oct-19 @ 18:00 UTC

Oct-20@
00:00 UTC

Oct-20 @ 00:00 UTC

FM191800 18016G22KT P6SM BKN020 BKN070

From

From Standard forecast or significant change

Wind
  • 180° at 16 KTS
  • {Gusting to 22 KTS
Cloud Levels
  • Broken at 2,000' AGL
  • Broken at 7,000' AGL